Sudley Springs, Virginia
Current Conditions -  °F | °C
As of 12:55 AM on Friday 28 Nov 2014 (Local Time) from KHEF Reporting Station
Clear Clear  
Wind Chill: 25°   Ceiling: Unl
Heat Index: 34°   Visibility: 10mi
Dew Point: 25°   Wind: 12mph
Humidity: 70%   Direction: 310°NW
Pressure: 30.2"   Gusts: NA
Location:  38.7882°N, 77.5328°W
Report Text: KHEF 280555Z 31010KT 10SM CLR 01/M04 A3020 RMK AO1 10030 21010 52007
Loading
Personal Weather Stations






























Interactive Weather Map New forecast layout! Learn more

10-Day Weather Forecast

Advertisements
Track Severe Weather on mobile